Time;durP1;ratioP1;P1;durP2;ratioP2;P2;SDS_P1;SDS_P2;PMS_P1;PMS_P2;Temp;Humidity;BMP_temperature;BMP_pressure;BME280_temperature;BME280_humidity;BME280_pressure;Samples;Min_cycle;Max_cycle;Signal;HPM_P1;HPM_P2
2021/10/25 00:02:26;;;;;;;0.00;0.00;;;;;;;4.23;94.32;102072.94;10380665;28;20033;-69
2021/10/25 00:07:27;;;;;;;0.00;0.00;;;;;;;4.18;94.61;102086.38;10380228;28;20026;-68
2021/10/25 00:12:27;;;;;;;0.00;0.00;;;;;;;4.13;93.95;102075.25;10372861;28;20014;-69
2021/10/25 00:17:27;;;;;;;0.00;0.00;;;;;;;4.10;94.86;102072.78;10380203;28;20033;-69
2021/10/25 00:22:28;;;;;;;0.00;0.00;;;;;;;4.05;94.40;102067.78;10377044;28;20679;-69
2021/10/25 00:27:28;;;;;;;0.00;0.00;;;;;;;3.97;94.66;102062.06;10364143;28;20373;-69
2021/10/25 00:32:28;;;;;;;0.00;0.00;;;;;;;3.93;95.16;102068.47;10339940;28;20060;-69
2021/10/25 00:37:29;;;;;;;0.00;0.00;;;;;;;3.87;94.94;102055.63;10349573;28;20018;-69
2021/10/25 00:42:29;;;;;;;0.00;0.00;;;;;;;3.79;95.40;102058.69;10378923;28;20702;-69
2021/10/25 00:47:29;;;;;;;0.00;0.00;;;;;;;3.74;96.00;102054.59;10346569;28;20700;-69
2021/10/25 00:52:31;;;;;;;0.00;0.00;;;;;;;3.72;96.31;102053.81;10339410;28;20041;-69
2021/10/25 00:57:31;;;;;;;0.00;0.00;;;;;;;3.71;95.75;102045.06;10343783;28;20026;-68
2021/10/25 01:02:32;;;;;;;0.00;0.00;;;;;;;3.72;95.87;102051.19;10376849;28;20022;-68
2021/10/25 01:07:33;;;;;;;0.00;0.00;;;;;;;3.73;96.30;102047.66;10359131;28;20026;-68
2021/10/25 01:12:45;;;;;;;0.00;0.00;;;;;;;3.71;95.96;102045.06;10365785;28;20648;-69
2021/10/25 01:17:51;;;;;;;0.00;0.00;;;;;;;3.65;95.65;102042.78;10348161;28;20022;-69
2021/10/25 01:22:52;;;;;;;0.00;0.00;;;;;;;3.58;96.08;102036.16;10340909;28;20038;-69
2021/10/25 01:27:53;;;;;;;0.00;0.00;;;;;;;3.53;96.20;102032.94;10331711;28;20532;-69
2021/10/25 01:32:53;;;;;;;0.00;0.00;;;;;;;3.48;97.01;102030.53;10345089;28;20021;-69
2021/10/25 01:37:54;;;;;;;0.00;0.00;;;;;;;3.52;96.86;102020.66;10346005;28;20015;-69
2021/10/25 01:42:54;;;;;;;0.00;0.00;;;;;;;3.53;96.99;102023.22;10345116;28;20041;-69
2021/10/25 01:47:55;;;;;;;0.00;0.00;;;;;;;3.56;97.34;102015.16;10370722;28;20045;-68
2021/10/25 01:52:56;;;;;;;0.00;0.00;;;;;;;3.60;97.06;102019.31;10352390;28;20022;-69
2021/10/25 01:57:57;;;;;;;0.00;0.00;;;;;;;3.63;97.09;102013.03;10332760;28;20037;-69
2021/10/25 02:02:57;;;;;;;0.00;0.00;;;;;;;3.54;96.95;102009.13;10338443;28;20388;-68
2021/10/25 02:07:57;;;;;;;0.00;0.00;;;;;;;3.48;97.06;102006.81;10355038;28;20552;-69
2021/10/25 02:12:58;;;;;;;0.00;0.00;;;;;;;3.45;97.96;102001.72;10334371;28;20026;-69
2021/10/25 02:17:58;;;;;;;0.00;0.00;;;;;;;3.37;97.81;101991.63;10363209;28;20075;-68
2021/10/25 02:22:58;;;;;;;0.00;0.00;;;;;;;3.29;97.05;101985.94;10370138;28;20279;-69
2021/10/25 02:27:59;;;;;;;0.00;0.00;;;;;;;3.27;98.29;101987.78;10375718;22;20038;-68
2021/10/25 02:33:00;;;;;;;0.00;0.00;;;;;;;3.28;97.81;101983.38;10369154;28;20030;-68
2021/10/25 02:38:00;;;;;;;0.00;0.00;;;;;;;3.27;97.87;101981.66;10363110;28;20756;-68
2021/10/25 02:43:00;;;;;;;0.00;0.00;;;;;;;3.27;97.95;101977.25;10369901;28;20033;-68
2021/10/25 02:48:02;;;;;;;0.00;0.00;;;;;;;3.23;98.42;101980.13;10368988;28;20105;-68
2021/10/25 02:53:04;;;;;;;0.00;0.00;;;;;;;3.23;98.49;101972.22;10369215;28;20019;-68
2021/10/25 02:58:04;;;;;;;0.00;0.00;;;;;;;3.25;98.27;101978.25;10369133;28;20387;-68
2021/10/25 03:03:04;;;;;;;0.00;0.00;;;;;;;3.19;98.73;101974.19;10369297;28;20030;-68
2021/10/25 03:08:05;;;;;;;0.00;0.00;;;;;;;3.15;99.12;101968.25;10359470;28;20064;-68
2021/10/25 03:13:08;;;;;;;0.00;0.00;;;;;;;3.13;99.35;101970.09;10365046;28;20680;-68
2021/10/25 03:18:09;;;;;;;0.00;0.00;;;;;;;3.11;99.73;101965.84;10366175;28;20516;-68
2021/10/25 03:23:11;;;;;;;0.00;0.00;;;;;;;3.11;99.49;101971.09;10361021;28;20053;-68
2021/10/25 03:28:11;;;;;;;0.00;0.00;;;;;;;3.13;99.33;101964.84;10366592;28;20017;-68
2021/10/25 03:33:11;;;;;;;0.00;0.00;;;;;;;3.12;98.83;101965.78;10361388;28;20027;-68
2021/10/25 03:38:15;;;;;;;0.00;0.00;;;;;;;3.05;98.71;101966.19;10364359;28;20269;-68
2021/10/25 03:43:16;;;;;;;0.00;0.00;;;;;;;2.98;98.67;101972.72;10362804;28;20088;-68
2021/10/25 03:48:26;;;;;;;0.00;0.00;;;;;;;2.93;99.62;101963.25;10368278;28;20026;-68
2021/10/25 03:53:39;;;;;;;0.00;0.00;;;;;;;2.89;99.66;101955.63;10366500;28;20021;-68
2021/10/25 04:30:00;;;;;;;0.00;0.00;;;;;;;2.91;100.00;101949.34;10365956;28;20030;-69
2021/10/25 04:35:00;;;;;;;0.00;0.00;;;;;;;2.89;100.00;101948.59;10367217;28;20468;-69
2021/10/25 04:40:03;;;;;;;0.00;0.00;;;;;;;2.89;100.00;101947.75;10367843;28;20017;-69
2021/10/25 04:45:04;;;;;;;0.00;0.00;;;;;;;2.89;100.00;101935.44;10373188;28;20257;-69
2021/10/25 04:50:05;;;;;;;0.00;0.00;;;;;;;2.92;100.00;101940.53;10374061;28;20461;-69
2021/10/25 04:55:06;;;;;;;0.00;0.00;;;;;;;2.93;100.00;101942.22;10370859;28;20064;-69
2021/10/25 05:00:08;;;;;;;0.00;0.00;;;;;;;2.94;100.00;101935.19;10371714;28;20061;-69
2021/10/25 05:05:08;;;;;;;0.00;0.00;;;;;;;2.87;100.00;101941.69;10373515;28;20049;-69
2021/10/25 05:10:09;;;;;;;0.00;0.00;;;;;;;2.76;100.00;101929.09;10372863;28;20053;-69
2021/10/25 05:15:09;;;;;;;0.00;0.00;;;;;;;2.71;100.00;101932.00;10373153;28;20108;-69
2021/10/25 05:20:10;;;;;;;0.00;0.00;;;;;;;2.69;100.00;101928.59;10367198;28;20018;-69
2021/10/25 05:25:11;;;;;;;0.00;0.00;;;;;;;2.66;100.00;101928.75;10368960;28;20029;-69
2021/10/25 05:30:11;;;;;;;0.00;0.00;;;;;;;2.71;100.00;101925.91;10367766;28;20025;-69
2021/10/25 05:35:11;;;;;;;0.00;0.00;;;;;;;2.72;100.00;101924.94;10370707;28;20271;-69
2021/10/25 05:40:12;;;;;;;0.00;0.00;;;;;;;2.82;100.00;101933.19;10370720;28;20061;-69
2021/10/25 05:45:13;;;;;;;0.00;0.00;;;;;;;2.87;100.00;101928.53;10364908;28;20029;-69
2021/10/25 05:50:13;;;;;;;0.00;0.00;;;;;;;2.90;100.00;101923.09;10368809;28;20014;-69
2021/10/25 05:55:16;;;;;;;0.00;0.00;;;;;;;2.89;100.00;101917.00;10370530;28;20026;-69
2021/10/25 06:00:19;;;;;;;0.00;0.00;;;;;;;2.85;100.00;101912.84;10368003;28;20029;-69
2021/10/25 06:05:21;;;;;;;0.00;0.00;;;;;;;2.81;100.00;101915.72;10369422;28;20028;-69
2021/10/25 06:10:32;;;;;;;0.00;0.00;;;;;;;2.80;100.00;101925.41;10367585;28;20120;-69
2021/10/25 06:15:40;;;;;;;0.00;0.00;;;;;;;2.79;100.00;101918.41;10368515;28;20057;-69
2021/10/25 06:20:40;;;;;;;0.00;0.00;;;;;;;2.81;100.00;101927.09;10367786;28;20018;-69
2021/10/25 06:25:42;;;;;;;0.00;0.00;;;;;;;2.87;100.00;101925.91;10365680;28;20018;-69
2021/10/25 06:30:42;;;;;;;0.00;0.00;;;;;;;2.90;100.00;101923.94;10368219;28;20029;-69
2021/10/25 06:35:43;;;;;;;0.00;0.00;;;;;;;2.98;100.00;101914.81;10369473;28;20038;-69
2021/10/25 06:40:48;;;;;;;0.00;0.00;;;;;;;3.06;100.00;101921.34;10368342;28;20104;-69
2021/10/25 06:45:50;;;;;;;0.00;0.00;;;;;;;3.11;100.00;101927.22;10361204;28;20026;-70
2021/10/25 06:50:51;;;;;;;0.00;0.00;;;;;;;3.22;100.00;101931.03;10365130;28;20103;-70
2021/10/25 06:55:51;;;;;;;0.00;0.00;;;;;;;3.34;100.00;101928.56;10363505;28;20030;-70
2021/10/25 07:00:52;;;;;;;0.00;0.00;;;;;;;3.37;99.90;101932.81;10365108;28;20022;-70
2021/10/25 07:05:52;;;;;;;0.00;0.00;;;;;;;3.40;99.47;101924.75;10359336;28;20299;-70
2021/10/25 07:10:53;;;;;;;0.00;0.00;;;;;;;3.60;99.86;101928.88;10366234;28;20025;-70
2021/10/25 07:16:29;;;;;;;0.00;0.00;;;;;;;3.70;98.71;101931.88;10366902;28;20232;-70
2021/10/25 08:13:51;;;;;;;0.10;0.10;;;;;;;10.35;75.99;101920.84;10367295;28;20053;-70
2021/10/25 08:23:51;;;;;;;0.08;0.08;;;;;;;10.60;75.98;101908.94;10368635;28;20671;-70
2021/10/25 08:28:52;;;;;;;0.10;0.10;;;;;;;10.50;75.84;101918.69;10369655;28;20088;-69
2021/10/25 08:44:22;;;;;;;0.10;0.10;;;;;;;10.94;74.68;101917.50;10373981;28;20030;-70
2021/10/25 08:49:22;;;;;;;0.10;0.10;;;;;;;11.16;74.54;101920.94;10373139;28;20022;-69
2021/10/25 08:54:22;;;;;;;0.08;0.08;;;;;;;11.06;75.05;101915.59;10365226;28;20025;-70
2021/10/25 08:59:23;;;;;;;0.10;0.10;;;;;;;11.14;74.85;101902.41;10371883;28;20025;-70
2021/10/25 09:04:23;;;;;;;0.00;0.00;;;;;;;11.16;76.17;101904.94;10370879;28;20030;-72
2021/10/25 09:09:25;;;;;;;0.10;0.10;;;;;;;11.05;75.50;101892.53;10373077;28;20045;-70
2021/10/25 09:14:26;;;;;;;0.00;0.00;;;;;;;10.95;75.54;101902.34;10373586;28;20908;-69
2021/10/25 09:19:34;;;;;;;0.10;0.10;;;;;;;10.92;76.71;101895.47;10370065;28;20421;-70
2021/10/25 09:24:35;;;;;;;0.10;0.10;;;;;;;10.99;77.35;101883.25;10372320;28;20141;-66
2021/10/25 09:29:39;;;;;;;0.10;0.10;;;;;;;10.62;76.73;101873.19;10371549;28;20565;-69
2021/10/25 09:34:46;;;;;;;0.00;0.00;;;;;;;9.90;77.71;101857.22;10368399;28;20022;-69
2021/10/25 09:50:23;;;;;;;0.00;0.00;;;;;;;10.26;79.97;101861.19;10354262;28;20280;-70
2021/10/25 09:55:23;;;;;;;0.10;0.10;;;;;;;10.31;79.42;101866.16;10364029;28;20344;-70
2021/10/25 10:00:24;;;;;;;0.10;0.10;;;;;;;10.18;79.33;101882.31;10358294;28;20126;-69
2021/10/25 10:05:26;;;;;;;0.00;0.00;;;;;;;10.44;79.95;101882.75;10362664;28;20030;-69
2021/10/25 10:10:46;;;;;;;0.10;0.10;;;;;;;10.51;78.52;101872.44;10360141;28;20021;-69
2021/10/25 10:15:47;;;;;;;0.10;0.10;;;;;;;10.67;80.09;101870.13;10362145;28;20373;-69
2021/10/25 10:20:53;;;;;;;0.10;0.10;;;;;;;10.76;79.36;101874.66;10367508;28;20102;-69
2021/10/25 10:25:57;;;;;;;0.00;0.00;;;;;;;10.68;78.99;101866.50;10368891;28;20458;-69
2021/10/25 10:31:03;;;;;;;0.00;0.00;;;;;;;10.49;79.37;101869.06;10365979;28;20028;-70
2021/10/25 10:36:23;;;;;;;0.03;0.03;;;;;;;10.39;80.36;101864.53;10367664;28;20563;-70
2021/10/25 10:41:38;;;;;;;0.10;0.10;;;;;;;10.35;80.89;101870.25;10364919;28;20026;-70
2021/10/25 10:46:52;;;;;;;0.10;0.10;;;;;;;10.24;80.56;101863.16;10367321;28;20061;-70
2021/10/25 10:57:42;;;;;;;0.00;0.00;;;;;;;10.12;81.84;101864.19;10340840;28;20034;-69
2021/10/25 11:02:54;;;;;;;0.10;0.10;;;;;;;10.20;81.81;101861.72;10350225;28;20029;-69
2021/10/25 11:08:05;;;;;;;0.00;0.00;;;;;;;10.31;83.14;101874.16;10360264;28;20093;-69
2021/10/25 11:13:08;;;;;;;0.10;0.10;;;;;;;10.52;81.53;101866.13;10362961;28;20033;-69
2021/10/25 11:18:09;;;;;;;0.00;0.00;;;;;;;10.64;82.11;101873.88;10363521;28;20014;-69
2021/10/25 11:23:09;;;;;;;0.10;0.10;;;;;;;10.70;81.65;101872.50;10364347;28;20476;-69
2021/10/25 11:28:19;;;;;;;0.10;0.10;;;;;;;10.77;82.46;101865.69;10330537;28;1056834;-69
2021/10/25 11:33:20;;;;;;;0.10;0.10;;;;;;;10.77;82.18;101873.69;10361029;28;20018;-69
2021/10/25 11:38:20;;;;;;;0.10;0.10;;;;;;;10.64;82.37;101865.88;10365400;28;20022;-69
2021/10/25 11:43:29;;;;;;;0.10;0.10;;;;;;;10.48;83.39;101849.56;10364877;28;20357;-69
2021/10/25 11:48:30;;;;;;;0.10;0.10;;;;;;;10.43;83.53;101847.31;10365962;28;20022;-69
2021/10/25 11:53:30;;;;;;;0.10;0.10;;;;;;;10.42;84.50;101837.63;10365128;28;20021;-69
2021/10/25 11:58:31;;;;;;;0.10;0.10;;;;;;;10.47;84.40;101833.72;10357937;28;20025;-69
2021/10/25 12:03:31;;;;;;;0.10;0.10;;;;;;;10.49;84.83;101834.44;10339906;28;20026;-69
2021/10/25 12:08:31;;;;;;;0.10;0.10;;;;;;;10.57;85.72;101830.13;10335732;28;20276;-70
2021/10/25 12:13:32;;;;;;;0.08;0.08;;;;;;;10.72;85.52;101827.94;10337234;28;20030;-69
2021/10/25 12:18:32;;;;;;;0.10;0.10;;;;;;;10.85;85.25;101823.19;10342045;28;20033;-69
2021/10/25 12:23:47;;;;;;;0.10;0.10;;;;;;;10.86;84.54;101822.22;10364769;28;20033;-70
2021/10/25 12:28:47;;;;;;;0.10;0.10;;;;;;;10.86;85.34;101814.22;10363114;28;20034;-69
2021/10/25 12:33:51;;;;;;;0.05;0.05;;;;;;;10.90;85.66;101816.59;10365411;28;20037;-69
2021/10/25 12:38:54;;;;;;;0.05;0.05;;;;;;;10.94;86.23;101807.34;10363648;28;20018;-69
2021/10/25 12:43:58;;;;;;;0.10;0.10;;;;;;;10.96;86.18;101808.06;10363646;28;20101;-69
2021/10/25 12:48:59;;;;;;;0.10;0.10;;;;;;;11.01;86.58;101804.00;10365863;28;20538;-69
2021/10/25 12:54:10;;;;;;;0.10;0.10;;;;;;;11.06;86.27;101804.44;10364664;28;20128;-69
2021/10/25 12:59:14;;;;;;;0.10;0.10;;;;;;;11.05;86.63;101796.56;10365906;28;20010;-69
2021/10/25 13:04:19;;;;;;;0.10;0.10;;;;;;;11.09;86.86;101776.66;10345157;28;20128;-69
2021/10/25 13:09:19;;;;;;;0.00;0.00;;;;;;;11.10;86.47;101781.00;10366368;28;20284;-69
2021/10/25 13:14:19;;;;;;;0.00;0.00;;;;;;;11.03;86.69;101778.06;10371463;28;20022;-69
2021/10/25 13:19:20;;;;;;;0.10;0.10;;;;;;;10.97;86.35;101775.09;10362707;28;20044;-69
2021/10/25 13:24:21;;;;;;;0.10;0.10;;;;;;;10.87;87.16;101777.75;10369551;28;20044;-70
2021/10/25 13:29:21;;;;;;;0.10;0.10;;;;;;;10.77;87.85;101782.22;10369282;28;20022;-70
2021/10/25 13:34:22;;;;;;;0.10;0.10;;;;;;;10.73;87.88;101776.31;10347913;28;20026;-70
2021/10/25 13:39:22;;;;;;;0.03;0.03;;;;;;;10.72;87.76;101774.63;10331331;28;20037;-70
2021/10/25 13:44:23;;;;;;;0.10;0.10;;;;;;;10.70;88.38;101775.75;10330596;28;20100;-70
2021/10/25 13:49:24;;;;;;;0.10;0.10;;;;;;;10.66;88.73;101772.50;10344909;28;20076;-70
2021/10/25 13:54:24;;;;;;;0.05;0.05;;;;;;;10.61;89.52;101769.41;10370933;28;20543;-70
2021/10/25 13:59:25;;;;;;;0.10;0.10;;;;;;;10.53;90.19;101769.25;10338347;28;20026;-70
2021/10/25 14:04:25;;;;;;;0.10;0.10;;;;;;;10.49;90.70;101771.34;10368719;28;20034;-70
2021/10/25 14:09:26;;;;;;;0.10;0.10;;;;;;;10.43;91.67;101770.06;10370546;28;20388;-70
2021/10/25 14:14:28;;;;;;;0.10;0.10;;;;;;;10.36;92.14;101768.09;10367918;28;20025;-70
2021/10/25 14:19:29;;;;;;;0.10;0.10;;;;;;;10.32;93.08;101762.16;10368034;28;20018;-70
2021/10/25 14:24:29;;;;;;;0.00;0.00;;;;;;;10.31;93.41;101757.81;10369533;28;20029;-70
2021/10/25 14:29:29;;;;;;;0.10;0.10;;;;;;;10.32;93.49;101751.50;10369355;28;20478;-70
2021/10/25 14:34:31;;;;;;;0.10;0.10;;;;;;;10.32;93.56;101751.50;10369581;28;20476;-69
2021/10/25 14:39:50;;;;;;;0.00;0.00;;;;;;;10.31;94.26;101751.66;10360970;28;20030;-69
2021/10/25 14:45:11;;;;;;;0.10;0.10;;;;;;;10.34;93.93;101756.72;10365847;28;20034;-69
2021/10/25 14:55:41;;;;;;;0.10;0.10;;;;;;;10.36;94.42;101741.47;10369521;28;20030;-67
2021/10/25 15:00:43;;;;;;;0.10;0.10;;;;;;;10.38;94.39;101743.00;10366785;28;20385;-67
2021/10/25 15:05:43;;;;;;;0.10;0.10;;;;;;;10.40;94.14;101740.19;10364199;28;20041;-67
2021/10/25 15:10:46;;;;;;;0.10;0.10;;;;;;;10.41;94.46;101748.06;10330938;22;20046;-67
2021/10/25 15:15:47;;;;;;;0.10;0.10;;;;;;;10.42;94.42;101743.56;10316329;28;20034;-67
2021/10/25 15:20:48;;;;;;;0.10;0.10;;;;;;;10.38;94.65;101740.34;10282892;28;20039;-68
2021/10/25 15:25:55;;;;;;;0.10;0.10;;;;;;;10.38;94.97;101745.69;10285523;28;20031;-67
2021/10/25 15:30:55;;;;;;;0.10;0.10;;;;;;;10.37;96.24;101735.16;10273609;28;20042;-67
2021/10/25 15:35:57;;;;;;;0.10;0.10;;;;;;;10.29;96.89;101738.47;10246448;28;20031;-68
2021/10/25 15:40:57;;;;;;;0.10;0.10;;;;;;;10.23;97.20;101736.31;10243677;28;20037;-68
2021/10/25 15:45:58;;;;;;;0.10;0.10;;;;;;;10.17;97.53;101729.72;10245691;28;20115;-67
2021/10/25 15:50:58;;;;;;;0.10;0.10;;;;;;;10.11;98.15;101729.41;10245295;28;20118;-67
2021/10/25 15:55:58;;;;;;;0.10;0.10;;;;;;;10.05;98.77;101725.47;10245313;28;20118;-67
2021/10/25 16:00:59;;;;;;;0.10;0.10;;;;;;;10.02;98.39;101722.22;10249891;28;20270;-67
2021/10/25 16:06:00;;;;;;;0.10;0.10;;;;;;;9.98;98.72;101721.66;10244876;28;20050;-66
2021/10/25 16:11:01;;;;;;;0.00;0.00;;;;;;;9.94;98.85;101728.22;10245652;28;20482;-67
2021/10/25 16:16:01;;;;;;;0.10;0.10;;;;;;;9.93;98.84;101734.53;10245380;28;20349;-67
2021/10/25 16:21:02;;;;;;;0.10;0.10;;;;;;;9.91;98.76;101739.97;10244430;28;20031;-68
2021/10/25 16:26:02;;;;;;;0.10;0.10;;;;;;;9.90;99.30;101737.44;10244796;28;20023;-67
2021/10/25 16:31:02;;;;;;;0.10;0.10;;;;;;;9.89;99.30;101744.59;10280801;28;20034;-67
2021/10/25 16:36:03;;;;;;;0.00;0.00;;;;;;;9.86;99.71;101738.66;10285194;28;20066;-67
2021/10/25 16:41:04;;;;;;;0.10;0.10;;;;;;;9.84;100.00;101740.66;10289633;28;20019;-67
2021/10/25 16:46:06;;;;;;;0.10;0.10;;;;;;;9.83;100.00;101739.81;10290105;28;20026;-68
2021/10/25 17:11:52;;;;;;;0.10;0.10;;;;;;;9.81;99.72;101752.38;10250340;28;20031;-67
2021/10/25 17:16:52;;;;;;;0.10;0.10;;;;;;;9.82;99.81;101740.75;10250585;28;20502;-67
2021/10/25 17:21:53;;;;;;;0.07;0.07;;;;;;;9.84;99.39;101741.47;10250356;28;20446;-68
2021/10/25 17:26:54;;;;;;;0.00;0.00;;;;;;;9.83;99.41;101738.94;10279923;28;20815;-69
2021/10/25 17:31:55;;;;;;;0.00;0.00;;;;;;;9.78;98.83;101739.34;10288786;28;20031;-68
2021/10/25 17:36:57;;;;;;;0.10;0.10;;;;;;;9.73;98.50;101749.53;10289860;28;20097;-68
2021/10/25 17:42:01;;;;;;;0.00;0.00;;;;;;;9.73;98.90;101749.53;10289501;28;20276;-67
2021/10/25 17:47:02;;;;;;;0.10;0.10;;;;;;;9.75;98.72;101750.25;10289107;28;20054;-67
2021/10/25 17:52:03;;;;;;;0.10;0.10;;;;;;;9.75;98.82;101737.78;10289159;28;20546;-66
2021/10/25 17:57:08;;;;;;;0.00;0.00;;;;;;;9.75;98.42;101732.47;10289239;28;20489;-67
2021/10/25 18:02:09;;;;;;;0.00;0.00;;;;;;;9.76;97.97;101727.97;10277340;28;20518;-66
2021/10/25 18:07:10;;;;;;;0.10;0.10;;;;;;;9.78;97.75;101727.88;10279267;28;20097;-67
2021/10/25 18:12:11;;;;;;;0.10;0.10;;;;;;;9.81;97.45;101738.25;10289171;28;20031;-67
2021/10/25 18:17:12;;;;;;;0.10;0.10;;;;;;;9.82;97.60;101727.44;10286848;28;20435;-67
2021/10/25 18:22:12;;;;;;;0.10;0.10;;;;;;;9.82;96.94;101723.97;10288447;28;20030;-67
2021/10/25 18:27:12;;;;;;;0.10;0.10;;;;;;;9.84;96.66;101730.84;10274993;28;20073;-67
2021/10/25 18:32:22;;;;;;;0.00;0.00;;;;;;;9.88;96.45;101726.09;10248509;28;20274;-66
2021/10/25 18:37:22;;;;;;;0.10;0.10;;;;;;;9.86;96.69;101717.38;10267426;28;20297;-66
2021/10/25 18:42:23;;;;;;;0.10;0.10;;;;;;;9.83;96.92;101717.66;10276117;28;20033;-66
2021/10/25 18:47:25;;;;;;;0.10;0.10;;;;;;;9.85;96.75;101716.53;10249479;28;20323;-66
2021/10/25 18:52:26;;;;;;;0.10;0.10;;;;;;;9.87;96.54;101724.41;10277019;28;20481;-66
2021/10/25 18:57:26;;;;;;;0.10;0.10;;;;;;;9.89;96.17;101727.75;10270594;28;20035;-66
2021/10/25 19:02:27;;;;;;;0.10;0.10;;;;;;;9.89;96.68;101725.97;10245673;28;20027;-66
2021/10/25 19:07:27;;;;;;;0.10;0.10;;;;;;;9.90;96.58;101727.63;10256884;28;20027;-66
2021/10/25 19:12:28;;;;;;;0.10;0.10;;;;;;;9.90;96.40;101724.13;10245743;28;20286;-66
2021/10/25 19:17:28;;;;;;;0.00;0.00;;;;;;;9.90;96.01;101724.13;10262392;28;20034;-66
2021/10/25 19:22:29;;;;;;;0.00;0.00;;;;;;;9.90;96.04;101719.66;10244488;28;20186;-67
2021/10/25 19:27:29;;;;;;;0.10;0.10;;;;;;;9.93;95.84;101719.38;10252633;28;20023;-66
2021/10/25 19:32:30;;;;;;;0.10;0.10;;;;;;;9.96;95.15;101718.28;10257913;28;20035;-66
2021/10/25 19:37:30;;;;;;;0.10;0.10;;;;;;;9.95;95.24;101709.47;10282515;28;20033;-66
2021/10/25 19:42:31;;;;;;;0.00;0.00;;;;;;;9.96;95.23;101715.63;10284216;28;20038;-66
2021/10/25 19:47:32;;;;;;;0.10;0.10;;;;;;;9.95;95.55;101706.81;10271844;28;20045;-66
2021/10/25 19:52:35;;;;;;;0.00;0.00;;;;;;;9.97;95.39;101714.63;10283754;28;20273;-66
2021/10/25 19:57:37;;;;;;;0.10;0.10;;;;;;;9.95;95.63;101728.09;10283366;28;20030;-67
2021/10/25 20:02:38;;;;;;;0.10;0.10;;;;;;;9.98;94.83;101727.00;10279470;28;20093;-67
2021/10/25 20:07:39;;;;;;;0.10;0.10;;;;;;;9.98;95.24;101721.66;10282543;28;20427;-67
2021/10/25 20:12:41;;;;;;;0.10;0.10;;;;;;;10.03;94.93;101713.25;10286872;28;20433;-66
2021/10/25 20:17:44;;;;;;;0.10;0.10;;;;;;;10.05;94.66;101720.13;10280365;28;20034;-66
2021/10/25 20:22:45;;;;;;;0.10;0.10;;;;;;;10.08;94.97;101727.03;10275234;28;20058;-66
2021/10/25 20:27:45;;;;;;;0.10;0.10;;;;;;;10.08;95.21;101727.03;10250982;28;20087;-66
2021/10/25 20:32:45;;;;;;;0.07;0.07;;;;;;;10.09;95.20;101734.00;10264103;28;20493;-67
2021/10/25 20:37:46;;;;;;;0.00;0.00;;;;;;;10.07;95.44;101733.31;10282933;28;20047;-66
2021/10/25 20:42:47;;;;;;;0.10;0.10;;;;;;;10.06;94.84;101740.44;10279209;28;20556;-67
2021/10/25 20:47:48;;;;;;;0.10;0.10;;;;;;;10.05;95.25;101738.78;10264157;28;20314;-66
2021/10/25 20:52:48;;;;;;;0.10;0.10;;;;;;;10.07;95.18;101742.16;10251197;28;20051;-66
2021/10/25 20:57:49;;;;;;;0.10;0.10;;;;;;;10.07;94.82;101742.16;10277109;28;20454;-67
2021/10/25 21:02:53;;;;;;;0.10;0.10;;;;;;;10.09;94.73;101750.00;10272601;28;20034;-66
2021/10/25 21:07:54;;;;;;;0.05;0.05;;;;;;;10.09;94.95;101750.00;10249402;28;20031;-67
2021/10/25 21:12:54;;;;;;;0.10;0.10;;;;;;;10.07;94.52;101741.31;10250024;28;20497;-67
2021/10/25 21:17:54;;;;;;;0.00;0.00;;;;;;;10.07;94.40;101741.31;10247549;28;20039;-66
2021/10/25 21:22:55;;;;;;;0.10;0.10;;;;;;;10.06;94.35;101736.94;10248029;28;20270;-66
2021/10/25 21:27:55;;;;;;;0.10;0.10;;;;;;;10.06;94.42;101739.59;10248350;28;20027;-66
2021/10/25 21:32:55;;;;;;;0.10;0.10;;;;;;;10.06;94.66;101739.59;10260589;28;20194;-66
2021/10/25 21:37:56;;;;;;;0.10;0.10;;;;;;;10.05;94.51;101733.44;10251408;28;20258;-66
2021/10/25 21:42:56;;;;;;;0.10;0.10;;;;;;;10.03;94.61;101734.56;10248620;28;20098;-66
2021/10/25 21:47:57;;;;;;;0.10;0.10;;;;;;;10.02;94.96;101733.72;10287075;28;20018;-66
2021/10/25 21:52:59;;;;;;;0.10;0.10;;;;;;;10.02;95.02;101724.91;10287788;28;20442;-66
2021/10/25 21:57:59;;;;;;;0.10;0.10;;;;;;;10.00;94.95;101719.69;10285962;28;20030;-66
2021/10/25 22:03:00;;;;;;;0.00;0.00;;;;;;;9.96;95.03;101715.63;10277411;28;20442;-68
2021/10/25 22:08:00;;;;;;;0.00;0.00;;;;;;;9.92;95.52;101723.03;10254934;28;20619;-67
2021/10/25 22:13:01;;;;;;;0.10;0.10;;;;;;;9.87;95.63;101727.91;10271342;28;20025;-65
2021/10/25 22:18:02;;;;;;;0.00;0.00;;;;;;;9.84;95.93;101714.03;10286812;28;20042;-66
2021/10/25 22:23:04;;;;;;;0.10;0.10;;;;;;;9.82;95.72;101711.50;10272976;28;20034;-68
2021/10/25 22:28:04;;;;;;;0.03;0.03;;;;;;;9.78;95.96;101702.09;10245366;28;20089;-68
2021/10/25 22:33:05;;;;;;;0.10;0.10;;;;;;;9.73;96.19;101704.31;10255818;28;20035;-68
2021/10/25 22:38:05;;;;;;;0.10;0.10;;;;;;;9.71;96.54;101706.25;10252268;28;20110;-68
2021/10/25 22:43:06;;;;;;;0.00;0.00;;;;;;;9.71;96.48;101703.59;10254655;28;20018;-67
2021/10/25 22:48:06;;;;;;;0.10;0.10;;;;;;;9.72;96.74;101700.81;10249336;28;20093;-67
2021/10/25 22:53:07;;;;;;;0.10;0.10;;;;;;;9.73;96.79;101706.97;10247075;28;20081;-66
2021/10/25 22:58:07;;;;;;;0.10;0.10;;;;;;;9.73;96.60;101698.97;10245542;28;20027;-66
2021/10/25 23:03:08;;;;;;;0.10;0.10;;;;;;;9.75;96.98;101705.03;10245878;28;20019;-67
2021/10/25 23:08:08;;;;;;;0.00;0.00;;;;;;;9.77;96.88;101700.38;10276760;28;20030;-67
2021/10/25 23:13:08;;;;;;;0.10;0.10;;;;;;;9.81;96.95;101699.16;10267965;28;20398;-67
2021/10/25 23:18:10;;;;;;;0.10;0.10;;;;;;;9.85;97.01;101711.22;10337683;23;20128;-66
2021/10/25 23:23:10;;;;;;;0.10;0.10;;;;;;;9.86;98.93;101712.94;10330331;28;20277;-66
2021/10/25 23:28:11;;;;;;;0.00;0.00;;;;;;;9.83;99.99;101705.22;10367729;28;20018;-66
2021/10/25 23:33:11;;;;;;;0.10;0.10;;;;;;;9.74;100.00;101714.84;10368051;28;20024;-68
2021/10/25 23:38:12;;;;;;;0.08;0.08;;;;;;;9.69;100.00;101717.03;10358915;28;20064;-70
2021/10/25 23:43:12;;;;;;;0.10;0.10;;;;;;;9.64;100.00;101724.56;10332313;28;20021;-71
2021/10/25 23:48:13;;;;;;;0.10;0.10;;;;;;;9.61;100.00;101708.03;10359331;28;20096;-71
2021/10/25 23:53:13;;;;;;;0.10;0.10;;;;;;;9.60;100.00;101714.31;10349665;28;20033;-71
2021/10/25 23:58:13;;;;;;;0.10;0.10;;;;;;;9.59;100.00;101713.47;10329233;28;20022;-71
